createdAt,value
2022-08-16T00:01:24.783Z,99981.28
2022-08-16T00:03:54.070Z,99983.09
2022-08-16T00:06:22.692Z,99980.59
2022-08-16T00:08:50.264Z,99980.75
2022-08-16T00:11:20.691Z,99982.63
2022-08-16T00:13:53.645Z,99981.94
2022-08-16T00:17:00.618Z,99980.28
2022-08-16T00:19:22.753Z,99974.97
2022-08-16T00:21:54.503Z,99979.06
2022-08-16T00:24:31.097Z,99985.78
2022-08-16T00:27:04.021Z,99986.78
2022-08-16T00:29:31.935Z,99989.97
2022-08-16T00:32:06.122Z,99982.34
2022-08-16T00:34:43.869Z,99983.41
2022-08-16T00:37:25.111Z,99988.06
2022-08-16T00:40:34.194Z,99994.50
2022-08-16T00:43:16.954Z,99990.69
2022-08-16T00:46:34.668Z,99995.44
2022-08-16T00:49:17.323Z,99997.50
2022-08-16T00:51:53.799Z,99995.66
2022-08-16T00:54:26.826Z,100004.09
2022-08-16T00:56:59.931Z,100006.97
2022-08-16T00:59:34.287Z,100013.50
2022-08-16T01:02:30.050Z,100021.09
2022-08-16T01:05:11.314Z,100019.97
2022-08-16T01:07:51.761Z,100028.00
2022-08-16T01:10:32.330Z,100033.47
2022-08-16T01:13:21.310Z,100034.09
2022-08-16T01:16:01.261Z,100030.38
2022-08-16T01:18:55.035Z,100038.69
2022-08-16T01:22:48.559Z,100044.94
2022-08-16T01:25:18.762Z,100039.06
2022-08-16T01:27:57.668Z,100040.38
2022-08-16T01:30:53.027Z,100046.19
2022-08-16T01:33:22.474Z,100043.19
2022-08-16T01:36:09.328Z,100042.34
2022-08-16T01:38:51.252Z,100038.38
2022-08-16T01:41:30.611Z,100046.63
2022-08-16T01:44:00.748Z,100044.00
2022-08-16T01:46:43.085Z,100045.63
2022-08-16T01:49:42.962Z,100042.41
2022-08-16T01:52:27.984Z,100046.72
2022-08-16T01:54:59.440Z,100047.34
2022-08-16T01:57:28.033Z,100045.19
2022-08-16T02:00:00.036Z,100049.31
2022-08-16T02:02:29.061Z,100052.31
2022-08-16T02:05:00.082Z,100053.88
2022-08-16T02:07:27.549Z,100050.97
2022-08-16T02:09:58.889Z,100046.59
2022-08-16T02:12:45.853Z,100055.34
2022-08-16T02:15:25.511Z,100050.34
2022-08-16T02:18:01.213Z,100050.41
2022-08-16T02:20:33.809Z,100047.44
2022-08-16T02:23:05.808Z,100049.28
2022-08-16T02:25:34.936Z,100046.94
2022-08-16T02:28:19.533Z,100054.59
2022-08-16T02:30:50.898Z,100060.22
2022-08-16T02:33:44.036Z,100062.59
2022-08-16T02:36:14.159Z,100069.00
2022-08-16T02:38:44.366Z,100066.47
2022-08-16T02:41:13.719Z,100064.03
2022-08-16T02:43:41.070Z,100067.22
2022-08-16T02:46:09.751Z,100069.91
2022-08-16T02:48:39.189Z,100065.63
2022-08-16T02:51:14.550Z,100076.22
2022-08-16T02:53:48.412Z,100070.13
2022-08-16T02:56:18.163Z,100064.03
2022-08-16T02:58:48.347Z,100066.03
2022-08-16T03:01:24.924Z,100068.50
2022-08-16T03:04:29.985Z,100067.31
2022-08-16T03:06:56.747Z,100072.31
2022-08-16T03:09:28.511Z,100071.38
2022-08-16T03:11:56.971Z,100061.28
2022-08-16T03:14:24.627Z,100061.31
2022-08-16T03:16:59.193Z,100067.72
2022-08-16T03:19:47.967Z,100080.34
2022-08-16T03:22:28.168Z,100074.63
2022-08-16T03:25:00.983Z,100083.47
2022-08-16T03:27:32.115Z,100077.56
2022-08-16T03:30:17.604Z,100075.16
2022-08-16T03:32:51.776Z,100082.66
2022-08-16T03:35:24.262Z,100076.88
2022-08-16T03:38:33.539Z,100080.88
2022-08-16T03:40:54.341Z,100077.25
2022-08-16T03:43:21.895Z,100084.06
2022-08-16T03:45:52.522Z,100090.09
2022-08-16T03:48:36.623Z,100091.72
2022-08-16T03:51:10.408Z,100086.22
2022-08-16T03:53:41.598Z,100085.22
2022-08-16T03:56:18.673Z,100081.59
2022-08-16T03:58:51.046Z,100084.09
2022-08-16T04:01:22.491Z,100082.31
2022-08-16T04:03:51.339Z,100088.28
2022-08-16T04:06:20.634Z,100087.00
2022-08-16T04:08:48.159Z,100092.94
2022-08-16T04:11:16.439Z,100093.78
2022-08-16T04:14:00.192Z,100102.56
2022-08-16T04:16:32.363Z,100097.97
2022-08-16T04:19:04.367Z,100100.06
2022-08-16T04:21:47.467Z,100093.47
2022-08-16T04:24:15.633Z,100102.66
2022-08-16T04:26:46.471Z,100103.53
2022-08-16T04:29:23.560Z,100107.03
2022-08-16T04:31:56.629Z,100108.91
2022-08-16T04:34:31.165Z,100115.56
2022-08-16T04:37:01.941Z,100114.00
2022-08-16T04:39:45.712Z,100113.06
2022-08-16T04:42:17.375Z,100120.69
2022-08-16T04:44:54.590Z,100119.94
2022-08-16T04:47:31.509Z,100120.78
2022-08-16T04:50:22.667Z,100118.28
2022-08-16T04:52:57.808Z,100120.09
2022-08-16T04:55:31.751Z,100120.09
2022-08-16T04:58:43.650Z,100119.03
2022-08-16T05:00:55.187Z,100122.69
2022-08-16T05:03:24.026Z,100125.25
2022-08-16T05:05:59.355Z,100134.56
2022-08-16T05:08:32.800Z,100132.56
2022-08-16T05:11:08.509Z,100123.97
2022-08-16T05:13:42.379Z,100130.41
2022-08-16T05:16:21.759Z,100136.19
2022-08-16T05:18:53.790Z,100135.28
2022-08-16T05:21:24.307Z,100141.56
2022-08-16T05:23:58.535Z,100136.31
2022-08-16T05:26:32.856Z,100135.47
2022-08-16T05:29:04.358Z,100133.66
2022-08-16T05:31:32.205Z,100139.59
2022-08-16T05:34:03.779Z,100129.75
2022-08-16T05:36:34.201Z,100136.03
2022-08-16T05:39:07.893Z,100133.19
2022-08-16T05:41:45.626Z,100139.31
2022-08-16T05:44:22.558Z,100148.63
2022-08-16T05:46:56.187Z,100141.56
2022-08-16T05:49:38.919Z,100153.38
2022-08-16T05:52:11.170Z,100152.63
2022-08-16T05:54:46.837Z,100160.16
2022-08-16T05:57:17.646Z,100153.38
2022-08-16T05:59:50.666Z,100148.31
2022-08-16T06:02:30.633Z,100149.97
2022-08-16T06:05:00.644Z,100155.53
2022-08-16T06:07:29.209Z,100160.56
2022-08-16T06:10:00.174Z,100156.28
2022-08-16T06:12:30.081Z,100163.00
2022-08-16T06:15:04.574Z,100165.06
2022-08-16T06:17:43.935Z,100167.50
2022-08-16T06:20:23.534Z,100162.19
2022-08-16T06:22:57.887Z,100166.13
2022-08-16T06:25:36.643Z,100160.53
2022-08-16T06:28:16.808Z,100165.25
2022-08-16T06:30:45.223Z,100175.47
2022-08-16T06:33:22.402Z,100177.97
2022-08-16T06:35:59.350Z,100176.97
2022-08-16T06:38:32.444Z,100172.25
2022-08-16T06:41:13.548Z,100181.25
2022-08-16T06:43:41.743Z,100182.47
2022-08-16T06:46:31.898Z,100186.59
2022-08-16T06:49:05.229Z,100190.41
2022-08-16T06:51:46.199Z,100204.38
2022-08-16T06:54:16.370Z,100204.53
2022-08-16T06:56:44.119Z,100199.72
2022-08-16T06:59:11.346Z,100213.22
2022-08-16T07:01:44.713Z,100213.91
2022-08-16T07:04:13.965Z,100217.69
2022-08-16T07:07:01.897Z,100213.22
2022-08-16T07:09:30.636Z,100212.00
2022-08-16T07:12:03.651Z,100214.53
2022-08-16T07:14:33.742Z,100212.81
2022-08-16T07:17:03.265Z,100216.59
2022-08-16T07:20:03.951Z,100223.34
2022-08-16T07:22:52.385Z,100221.72
2022-08-16T07:25:16.882Z,100219.03
2022-08-16T07:27:44.297Z,100228.44
2022-08-16T07:30:45.443Z,100218.16
2022-08-16T07:33:03.323Z,100217.91
2022-08-16T07:35:31.447Z,100216.19
2022-08-16T07:38:01.510Z,100219.19
2022-08-16T07:40:58.120Z,100221.91
2022-08-16T07:43:18.038Z,100219.13
2022-08-16T07:45:49.465Z,100222.50
2022-08-16T07:48:20.935Z,100218.09
2022-08-16T07:50:57.341Z,100220.25
2022-08-16T07:53:30.797Z,100223.22
2022-08-16T07:56:00.542Z,100232.06
2022-08-16T07:58:34.955Z,100241.84
2022-08-16T08:01:10.410Z,100243.81
2022-08-16T08:03:49.272Z,100239.59
2022-08-16T08:06:25.099Z,100227.66
2022-08-16T08:08:57.191Z,100235.72
2022-08-16T08:11:28.120Z,100241.91
2022-08-16T08:14:03.497Z,100246.56
2022-08-16T08:16:32.951Z,100247.09
2022-08-16T08:19:02.873Z,100237.97
2022-08-16T08:21:58.791Z,100241.00
2022-08-16T08:24:22.204Z,100249.03
2022-08-16T08:27:02.134Z,100237.78
2022-08-16T08:29:37.596Z,100237.09
2022-08-16T08:32:58.045Z,100248.75
2022-08-16T08:35:03.415Z,100252.44
2022-08-16T08:37:55.296Z,100254.50
2022-08-16T08:40:24.772Z,100259.22
2022-08-16T08:43:00.734Z,100261.34
2022-08-16T08:45:52.970Z,100268.44
2022-08-16T08:48:34.369Z,100263.41
2022-08-16T08:51:09.677Z,100267.53
2022-08-16T08:53:37.856Z,100263.66
2022-08-16T08:56:23.713Z,100249.84
2022-08-16T08:58:54.242Z,100264.59
2022-08-16T09:01:42.779Z,100255.47
2022-08-16T09:04:23.260Z,100263.47
2022-08-16T09:06:50.949Z,100262.44
2022-08-16T09:09:17.929Z,100269.19
2022-08-16T09:11:53.602Z,100264.38
2022-08-16T09:14:27.507Z,100268.84
2022-08-16T09:17:01.680Z,100275.69
2022-08-16T09:19:34.658Z,100274.78
2022-08-16T09:22:02.267Z,100273.22
2022-08-16T09:24:52.571Z,100266.25
2022-08-16T09:27:17.027Z,100272.28
2022-08-16T09:29:46.478Z,100266.84
2022-08-16T09:32:28.744Z,100272.00
2022-08-16T09:34:58.484Z,100265.66
2022-08-16T09:37:36.799Z,100261.69
2022-08-16T09:40:31.913Z,100264.34
2022-08-16T09:42:59.485Z,100265.91
2022-08-16T09:45:38.985Z,100265.56
2022-08-16T09:48:12.088Z,100260.75
2022-08-16T09:50:59.107Z,100262.66
2022-08-16T09:53:29.629Z,100270.31
2022-08-16T09:55:57.665Z,100258.88
2022-08-16T09:58:40.617Z,100260.91
2022-08-16T10:01:14.161Z,100255.19
2022-08-16T10:04:01.944Z,100258.31
2022-08-16T10:06:33.670Z,100262.66
2022-08-16T10:09:15.486Z,100262.69
2022-08-16T10:12:11.790Z,100257.19
2022-08-16T10:14:46.667Z,100254.38
2022-08-16T10:17:13.897Z,100258.25
2022-08-16T10:19:43.146Z,100255.56
2022-08-16T10:22:10.828Z,100245.75
2022-08-16T10:24:55.762Z,100247.47
2022-08-16T10:27:30.051Z,100251.72
2022-08-16T10:30:26.094Z,100252.72
2022-08-16T10:32:56.102Z,100255.38
2022-08-16T10:35:24.280Z,100252.16
2022-08-16T10:38:01.244Z,100254.50
2022-08-16T10:40:30.461Z,100253.00
2022-08-16T10:43:01.071Z,100256.84
2022-08-16T10:45:37.105Z,100253.88
2022-08-16T10:48:27.565Z,100259.00
2022-08-16T10:51:00.938Z,100251.06
2022-08-16T10:53:32.636Z,100252.19
2022-08-16T10:56:06.362Z,100257.25
2022-08-16T10:58:52.969Z,100257.31
2022-08-16T11:01:39.790Z,100255.69
2022-08-16T11:05:04.877Z,100258.63
2022-08-16T11:08:06.901Z,100258.88
2022-08-16T11:09:43.232Z,100260.69
2022-08-16T11:12:13.939Z,100254.66
2022-08-16T11:15:11.406Z,100255.44
2022-08-16T11:17:32.787Z,100256.34
2022-08-16T11:20:41.501Z,100256.50
2022-08-16T11:22:50.552Z,100261.41
2022-08-16T11:28:12.487Z,100262.81
2022-08-16T11:30:59.435Z,100260.59
2022-08-16T11:36:22.522Z,100260.22
2022-08-16T11:38:57.025Z,100263.84
2022-08-16T11:41:25.030Z,100261.66
2022-08-16T11:43:53.584Z,100270.41
2022-08-16T11:46:43.740Z,100269.81
2022-08-16T11:49:13.454Z,100267.94
2022-08-16T11:51:44.335Z,100257.66
2022-08-16T11:54:20.932Z,100261.78
2022-08-16T11:56:52.860Z,100257.91
2022-08-16T11:59:28.517Z,100249.72
2022-08-16T12:01:59.803Z,100258.41
2022-08-16T12:04:32.320Z,100255.50
2022-08-16T12:07:07.908Z,100248.72
2022-08-16T12:09:41.274Z,100240.34
2022-08-16T12:12:11.112Z,100245.88
2022-08-16T12:14:38.970Z,100252.47
2022-08-16T12:17:08.353Z,100247.63
2022-08-16T12:19:36.446Z,100253.94
2022-08-16T12:22:19.679Z,100256.59
2022-08-16T12:24:52.239Z,100249.44
2022-08-16T12:27:24.610Z,100257.38
2022-08-16T12:29:58.426Z,100260.03
2022-08-16T12:32:41.850Z,100262.72
2022-08-16T12:35:15.193Z,100252.75
2022-08-16T12:37:46.233Z,100257.13
2022-08-16T12:40:24.865Z,100257.47
2022-08-16T12:42:59.685Z,100254.38
2022-08-16T12:45:35.725Z,100251.31
2022-08-16T12:48:34.859Z,100240.38
2022-08-16T12:51:19.957Z,100239.91
2022-08-16T12:53:55.803Z,100238.16
2022-08-16T12:56:33.469Z,100243.88
2022-08-16T12:59:09.634Z,100238.00
2022-08-16T13:01:41.696Z,100236.16
2022-08-16T13:04:12.255Z,100236.19
2022-08-16T13:06:52.026Z,100254.41
2022-08-16T13:09:24.159Z,100244.41
2022-08-16T13:12:16.313Z,100240.06
2022-08-16T13:14:44.994Z,100240.34
2022-08-16T13:17:22.273Z,100244.28
2022-08-16T13:20:07.108Z,100237.38
2022-08-16T13:22:41.433Z,100232.69
2022-08-16T13:25:20.947Z,100234.38
2022-08-16T13:28:02.987Z,100238.72
2022-08-16T13:30:41.073Z,100246.84
2022-08-16T13:33:24.806Z,100254.28
2022-08-16T13:35:56.022Z,100249.91
2022-08-16T13:38:24.955Z,100243.47
2022-08-16T13:40:56.991Z,100243.56
2022-08-16T13:43:32.497Z,100234.41
2022-08-16T13:46:04.642Z,100237.28
2022-08-16T13:48:43.393Z,100243.72
2022-08-16T13:51:18.109Z,100241.31
2022-08-16T13:53:59.792Z,100244.88
2022-08-16T13:56:37.629Z,100238.56
2022-08-16T13:59:19.648Z,100240.56
2022-08-16T14:01:59.565Z,100237.94
2022-08-16T14:04:36.535Z,100233.97
2022-08-16T14:07:21.290Z,100227.47
2022-08-16T14:09:55.284Z,100226.38
2022-08-16T14:12:30.256Z,100231.16
2022-08-16T14:14:59.268Z,100227.38
2022-08-16T14:17:29.007Z,100226.16
2022-08-16T14:19:59.673Z,100227.84
2022-08-16T14:22:35.062Z,100225.66
2022-08-16T14:25:20.149Z,100233.69
2022-08-16T14:27:49.629Z,100231.72
2022-08-16T14:30:22.862Z,100229.84
2022-08-16T14:32:52.500Z,100232.94
2022-08-16T14:35:48.198Z,100231.88
2022-08-16T14:38:18.121Z,100229.81
2022-08-16T14:40:52.815Z,100229.31
2022-08-16T14:43:24.521Z,100224.78
2022-08-16T14:45:54.687Z,100224.53
2022-08-16T14:48:25.833Z,100234.09
2022-08-16T14:50:55.325Z,100225.31
2022-08-16T14:53:25.544Z,100224.56
2022-08-16T14:55:54.101Z,100223.91
2022-08-16T14:58:35.091Z,100229.13
2022-08-16T15:01:09.799Z,100220.75
2022-08-16T15:03:37.939Z,100220.00
2022-08-16T15:06:05.702Z,100223.22
2022-08-16T15:08:36.616Z,100223.84
2022-08-16T15:11:07.728Z,100216.44
2022-08-16T15:13:35.868Z,100214.06
2022-08-16T15:16:04.668Z,100216.78
2022-08-16T15:18:33.514Z,100213.34
2022-08-16T15:21:02.444Z,100214.72
2022-08-16T15:23:31.496Z,100212.44
2022-08-16T15:26:04.045Z,100218.31
2022-08-16T15:28:36.622Z,100211.81
2022-08-16T15:31:09.797Z,100215.31
2022-08-16T15:33:56.401Z,100216.09
2022-08-16T15:36:25.890Z,100208.56
2022-08-16T15:39:07.815Z,100205.91
2022-08-16T15:41:43.424Z,100200.22
2022-08-16T15:44:21.121Z,100197.19
2022-08-16T15:46:56.371Z,100205.72
2022-08-16T15:49:34.632Z,100210.88
2022-08-16T15:52:25.002Z,100203.53
2022-08-16T15:55:07.490Z,100208.25
2022-08-16T15:57:41.568Z,100209.97
2022-08-16T16:00:15.004Z,100211.78
2022-08-16T16:02:43.643Z,100207.88
2022-08-16T16:05:10.790Z,100211.38
2022-08-16T16:07:55.845Z,100208.63
2022-08-16T16:10:29.323Z,100221.41
2022-08-16T16:13:00.947Z,100213.34
2022-08-16T16:15:37.518Z,100223.25
2022-08-16T16:18:09.978Z,100213.22
2022-08-16T16:20:43.526Z,100217.09
2022-08-16T16:23:11.326Z,100212.75
2022-08-16T16:25:43.883Z,100212.75
2022-08-16T16:29:05.821Z,100215.66
2022-08-16T16:31:13.226Z,100216.81
2022-08-16T16:33:47.796Z,100213.03
2022-08-16T16:36:22.248Z,100216.53
2022-08-16T16:38:52.958Z,100217.06
2022-08-16T16:41:25.529Z,100225.00
2022-08-16T16:43:55.696Z,100220.84
2022-08-16T16:46:42.242Z,100231.94
2022-08-16T16:49:14.417Z,100229.19
2022-08-16T16:51:44.542Z,100231.94
2022-08-16T16:54:27.722Z,100246.53
2022-08-16T16:56:56.847Z,100239.97
2022-08-16T16:59:28.399Z,100238.50
2022-08-16T17:02:01.444Z,100247.88
2022-08-16T17:04:46.055Z,100246.19
2022-08-16T17:07:14.504Z,100252.50
2022-08-16T17:09:41.691Z,100254.25
2022-08-16T17:12:17.645Z,100260.63
2022-08-16T17:14:54.891Z,100263.94
2022-08-16T17:17:23.510Z,100258.53
2022-08-16T17:19:50.723Z,100261.59
2022-08-16T17:22:21.735Z,100271.56
2022-08-16T17:24:52.827Z,100266.00
2022-08-16T17:27:33.561Z,100270.97
2022-08-16T17:30:15.124Z,100275.75
2022-08-16T17:32:54.526Z,100269.75
2022-08-16T17:35:33.928Z,100279.94
2022-08-16T17:38:09.183Z,100272.69
2022-08-16T17:40:56.014Z,100280.53
2022-08-16T17:43:36.993Z,100280.53
2022-08-16T17:46:51.763Z,100280.59
2022-08-16T17:49:02.175Z,100282.81
2022-08-16T17:51:29.437Z,100290.38
2022-08-16T17:53:56.828Z,100291.44
2022-08-16T17:56:23.784Z,100291.38
2022-08-16T17:58:50.851Z,100294.25
2022-08-16T18:01:23.939Z,100302.59
2022-08-16T18:04:07.894Z,100294.91
2022-08-16T18:06:37.474Z,100301.19
2022-08-16T18:09:05.965Z,100303.66
2022-08-16T18:11:40.853Z,100305.38
2022-08-16T18:14:09.770Z,100298.84
2022-08-16T18:16:37.374Z,100300.59
2022-08-16T18:19:06.546Z,100299.34
2022-08-16T18:21:52.069Z,100308.00
2022-08-16T18:24:19.106Z,100304.47
2022-08-16T18:26:46.433Z,100310.56
2022-08-16T18:29:13.775Z,100308.34
2022-08-16T18:31:40.757Z,100310.81
2022-08-16T18:34:07.984Z,100314.31
2022-08-16T18:36:35.363Z,100325.75
2022-08-16T18:39:02.810Z,100322.19
2022-08-16T18:41:30.482Z,100320.16
2022-08-16T18:44:24.744Z,100322.66
2022-08-16T18:46:50.762Z,100330.19
2022-08-16T18:49:19.682Z,100325.03
2022-08-16T18:51:47.174Z,100329.22
2022-08-16T18:54:19.508Z,100336.19
2022-08-16T18:56:55.983Z,100333.59
2022-08-16T18:59:30.680Z,100338.88
2022-08-16T19:02:04.102Z,100335.63
2022-08-16T19:04:56.811Z,100335.94
2022-08-16T19:07:31.205Z,100335.75
2022-08-16T19:10:01.509Z,100342.59
2022-08-16T19:12:38.343Z,100344.09
2022-08-16T19:15:17.681Z,100356.00
2022-08-16T19:17:47.159Z,100350.78
2022-08-16T19:20:20.148Z,100360.13
2022-08-16T19:23:04.959Z,100358.69
2022-08-16T19:25:47.395Z,100359.31
2022-08-16T19:28:50.549Z,100357.56
2022-08-16T19:31:28.734Z,100364.13
2022-08-16T19:33:56.885Z,100364.56
2022-08-16T19:36:37.394Z,100365.22
2022-08-16T19:39:13.837Z,100366.84
2022-08-16T19:41:53.791Z,100366.44
2022-08-16T19:44:23.065Z,100367.31
2022-08-16T19:46:51.181Z,100375.09
2022-08-16T19:49:18.411Z,100380.38
2022-08-16T19:51:47.099Z,100372.38
2022-08-16T19:54:14.469Z,100371.38
2022-08-16T19:56:41.558Z,100376.63
2022-08-16T19:59:19.175Z,100374.53
2022-08-16T20:01:49.975Z,100369.28
2022-08-16T20:04:17.065Z,100376.34
2022-08-16T20:06:44.136Z,100376.31
2022-08-16T20:09:15.413Z,100381.22
2022-08-16T20:11:49.490Z,100382.56
2022-08-16T20:14:24.802Z,100382.34
2022-08-16T20:16:56.053Z,100383.16
2022-08-16T20:19:23.434Z,100383.09
2022-08-16T20:21:50.599Z,100378.44
2022-08-16T20:24:33.345Z,100377.81
2022-08-16T20:27:04.904Z,100387.94
2022-08-16T20:29:31.990Z,100385.75
2022-08-16T20:31:59.112Z,100385.28
2022-08-16T20:34:26.115Z,100393.72
2022-08-16T20:36:53.136Z,100399.28
2022-08-16T20:39:20.181Z,100389.44
2022-08-16T20:41:47.170Z,100399.03
2022-08-16T20:44:14.191Z,100402.25
2022-08-16T20:46:41.264Z,100399.97
2022-08-16T20:49:10.226Z,100398.03
2022-08-16T20:51:49.855Z,100399.28
2022-08-16T20:54:19.990Z,100401.97
2022-08-16T20:56:47.367Z,100398.47
2022-08-16T20:59:14.485Z,100399.81
2022-08-16T21:01:46.762Z,100403.97
2022-08-16T21:04:21.170Z,100412.84
2022-08-16T21:06:54.354Z,100407.41
2022-08-16T21:09:28.859Z,100397.78
2022-08-16T21:11:57.643Z,100408.13
2022-08-16T21:14:25.208Z,100403.59
2022-08-16T21:16:52.483Z,100396.91
2022-08-16T21:19:20.738Z,100394.91
2022-08-16T21:21:48.508Z,100400.94
2022-08-16T21:24:16.232Z,100405.47
2022-08-16T21:26:53.957Z,100401.63
2022-08-16T21:29:39.841Z,100391.69
2022-08-16T21:32:18.571Z,100398.56
2022-08-16T21:34:46.689Z,100400.53
2022-08-16T21:37:15.677Z,100399.38
2022-08-16T21:39:43.439Z,100407.16
2022-08-16T21:42:16.710Z,100406.97
2022-08-16T21:44:45.385Z,100402.94
2022-08-16T21:47:12.415Z,100409.25
2022-08-16T21:49:39.816Z,100410.81
2022-08-16T21:52:09.616Z,100416.06
2022-08-16T21:54:56.874Z,100415.19
2022-08-16T21:57:24.397Z,100407.47
2022-08-16T21:59:55.792Z,100416.47
2022-08-16T22:02:35.624Z,100407.13
2022-08-16T22:05:09.589Z,100406.25
2022-08-16T22:07:37.295Z,100418.69
2022-08-16T22:11:04.147Z,100414.56
2022-08-16T22:12:55.053Z,100423.25
2022-08-16T22:15:26.088Z,100426.06
2022-08-16T22:17:57.816Z,100426.94
2022-08-16T22:20:28.836Z,100421.47
2022-08-16T22:23:22.872Z,100427.88
2022-08-16T22:25:52.857Z,100432.19
2022-08-16T22:28:21.883Z,100429.75
2022-08-16T22:30:49.800Z,100432.75
2022-08-16T22:33:23.225Z,100436.06
2022-08-16T22:36:01.259Z,100432.22
2022-08-16T22:38:54.046Z,100434.25
2022-08-16T22:41:17.849Z,100440.13
2022-08-16T22:43:48.951Z,100445.09
2022-08-16T22:46:16.155Z,100444.34
2022-08-16T22:48:43.126Z,100443.03
2022-08-16T22:51:10.384Z,100442.50
2022-08-16T22:53:37.762Z,100443.66
2022-08-16T22:56:05.322Z,100442.09
2022-08-16T22:58:36.196Z,100446.38
2022-08-16T23:01:08.080Z,100437.22
2022-08-16T23:03:37.552Z,100435.56
2022-08-16T23:06:06.596Z,100438.97
2022-08-16T23:08:39.168Z,100442.94
2022-08-16T23:11:14.235Z,100445.75
2022-08-16T23:13:52.740Z,100438.44
2022-08-16T23:16:34.640Z,100438.22
2022-08-16T23:19:10.260Z,100437.53
2022-08-16T23:21:42.386Z,100429.44
2022-08-16T23:24:11.867Z,100429.25
2022-08-16T23:26:46.084Z,100425.63
2022-08-16T23:29:24.399Z,100426.63
2022-08-16T23:32:10.667Z,100426.97
2022-08-16T23:34:37.783Z,100423.22
2022-08-16T23:37:06.436Z,100424.19
2022-08-16T23:39:33.511Z,100425.78
2022-08-16T23:42:00.759Z,100422.03
2022-08-16T23:44:55.924Z,100418.75
2022-08-16T23:47:14.793Z,100415.41
2022-08-16T23:50:00.199Z,100410.69
2022-08-16T23:52:45.724Z,100406.75
2022-08-16T23:55:17.329Z,100405.09
2022-08-16T23:57:45.978Z,100413.66
